sensor_id;sensor_type;location;lat;lon;timestamp;pressure;altitude;pressure_sealevel;temperature;humidity
71504;BME280;59323;50.874;7.028;2022-10-31T00:02:00;101764.81;;;12.66;90.11
71504;BME280;59323;50.874;7.028;2022-10-31T00:04:29;101765.59;;;12.66;90.45
71504;BME280;59323;50.874;7.028;2022-10-31T00:06:54;101774.22;;;12.68;90.38
71504;BME280;59323;50.874;7.028;2022-10-31T00:09:19;101749.94;;;12.63;90.45
71504;BME280;59323;50.874;7.028;2022-10-31T00:11:45;101768.31;;;12.66;90.26
71504;BME280;59323;50.874;7.028;2022-10-31T00:14:10;101767.88;;;12.64;90.12
71504;BME280;59323;50.874;7.028;2022-10-31T00:16:35;101762.69;;;12.59;90.12
71504;BME280;59323;50.874;7.028;2022-10-31T00:19:03;101772.47;;;12.60;90.05
71504;BME280;59323;50.874;7.028;2022-10-31T00:21:30;101774.50;;;12.63;90.02
71504;BME280;59323;50.874;7.028;2022-10-31T00:23:57;101778.72;;;12.61;89.99
71504;BME280;59323;50.874;7.028;2022-10-31T00:26:23;101782.13;;;12.58;90.05
71504;BME280;59323;50.874;7.028;2022-10-31T00:28:49;101781.09;;;12.62;89.69
71504;BME280;59323;50.874;7.028;2022-10-31T00:31:16;101772.38;;;12.57;89.65
71504;BME280;59323;50.874;7.028;2022-10-31T00:33:42;101774.22;;;12.53;89.57
71504;BME280;59323;50.874;7.028;2022-10-31T00:36:27;101766.41;;;12.51;90.28
71504;BME280;59323;50.874;7.028;2022-10-31T00:39:10;101758.75;;;12.41;90.67
71504;BME280;59323;50.874;7.028;2022-10-31T00:41:35;101784.25;;;12.49;90.81
71504;BME280;59323;50.874;7.028;2022-10-31T00:44:00;101783.72;;;12.43;90.77
71504;BME280;59323;50.874;7.028;2022-10-31T00:46:26;101786.09;;;12.45;90.79
71504;BME280;59323;50.874;7.028;2022-10-31T00:48:51;101790.75;;;12.44;90.83
71504;BME280;59323;50.874;7.028;2022-10-31T00:51:16;101797.44;;;12.47;90.48
71504;BME280;59323;50.874;7.028;2022-10-31T00:53:42;101794.00;;;12.50;90.39
71504;BME280;59323;50.874;7.028;2022-10-31T00:56:11;101795.84;;;12.46;90.51
71504;BME280;59323;50.874;7.028;2022-10-31T00:58:36;101804.56;;;12.51;90.71
71504;BME280;59323;50.874;7.028;2022-10-31T01:01:05;101800.97;;;12.47;90.70
71504;BME280;59323;50.874;7.028;2022-10-31T01:03:32;101789.97;;;12.44;90.91
71504;BME280;59323;50.874;7.028;2022-10-31T01:06:09;101793.41;;;12.41;91.10
71504;BME280;59323;50.874;7.028;2022-10-31T01:08:35;101773.09;;;12.38;91.33
71504;BME280;59323;50.874;7.028;2022-10-31T01:11:10;101759.09;;;12.40;91.27
71504;BME280;59323;50.874;7.028;2022-10-31T01:13:36;101767.28;;;12.40;91.18
71504;BME280;59323;50.874;7.028;2022-10-31T01:16:13;101759.34;;;12.34;91.69
71504;BME280;59323;50.874;7.028;2022-10-31T01:18:38;101760.13;;;12.35;91.76
71504;BME280;59323;50.874;7.028;2022-10-31T01:21:07;101762.97;;;12.38;91.71
71504;BME280;59323;50.874;7.028;2022-10-31T01:23:32;101767.38;;;12.43;91.54
71504;BME280;59323;50.874;7.028;2022-10-31T01:28:44;101764.63;;;12.43;91.59
71504;BME280;59323;50.874;7.028;2022-10-31T01:31:09;101757.59;;;12.42;90.80
71504;BME280;59323;50.874;7.028;2022-10-31T01:33:35;101753.03;;;12.46;90.76
71504;BME280;59323;50.874;7.028;2022-10-31T01:36:01;101749.06;;;12.44;90.84
71504;BME280;59323;50.874;7.028;2022-10-31T01:38:36;101754.53;;;12.44;91.17
71504;BME280;59323;50.874;7.028;2022-10-31T01:41:01;101754.97;;;12.46;90.96
71504;BME280;59323;50.874;7.028;2022-10-31T01:43:48;101757.25;;;12.44;90.71
71504;BME280;59323;50.874;7.028;2022-10-31T01:46:16;101750.22;;;12.43;90.62
71504;BME280;59323;50.874;7.028;2022-10-31T01:48:42;101742.19;;;12.34;90.56
71504;BME280;59323;50.874;7.028;2022-10-31T01:51:08;101735.16;;;12.33;91.14
71504;BME280;59323;50.874;7.028;2022-10-31T01:53:35;101734.38;;;12.32;91.70
71504;BME280;59323;50.874;7.028;2022-10-31T01:56:01;101748.09;;;12.36;91.45
71504;BME280;59323;50.874;7.028;2022-10-31T01:58:28;101739.38;;;12.30;91.48
71504;BME280;59323;50.874;7.028;2022-10-31T02:00:58;101728.47;;;12.30;91.46
71504;BME280;59323;50.874;7.028;2022-10-31T02:03:24;101728.56;;;12.34;91.61
71504;BME280;59323;50.874;7.028;2022-10-31T02:05:52;101716.34;;;12.28;91.47
71504;BME280;59323;50.874;7.028;2022-10-31T02:10:47;101723.09;;;12.34;91.17
71504;BME280;59323;50.874;7.028;2022-10-31T02:13:13;101726.31;;;12.36;91.32
71504;BME280;59323;50.874;7.028;2022-10-31T02:15:40;101730.06;;;12.31;91.21
71504;BME280;59323;50.874;7.028;2022-10-31T02:18:07;101740.25;;;12.34;91.35
71504;BME280;59323;50.874;7.028;2022-10-31T02:31:34;101748.25;;;12.27;91.36
71504;BME280;59323;50.874;7.028;2022-10-31T02:34:19;101752.03;;;12.23;91.63
71504;BME280;59323;50.874;7.028;2022-10-31T02:47:05;101753.34;;;12.13;91.98
71504;BME280;59323;50.874;7.028;2022-10-31T02:49:36;101754.38;;;12.09;91.78
71504;BME280;59323;50.874;7.028;2022-10-31T02:52:13;101755.53;;;12.07;91.65
71504;BME280;59323;50.874;7.028;2022-10-31T02:54:39;101751.31;;;12.10;91.46
71504;BME280;59323;50.874;7.028;2022-10-31T02:57:07;101752.34;;;12.05;91.65
71504;BME280;59323;50.874;7.028;2022-10-31T02:59:35;101759.66;;;12.01;91.69
71504;BME280;59323;50.874;7.028;2022-10-31T03:10:24;101764.84;;;12.06;91.57
71504;BME280;59323;50.874;7.028;2022-10-31T03:13:12;101761.69;;;12.04;91.42
71504;BME280;59323;50.874;7.028;2022-10-31T03:15:43;101751.63;;;11.93;91.78
71504;BME280;59323;50.874;7.028;2022-10-31T03:18:14;101762.53;;;11.93;91.95
71504;BME280;59323;50.874;7.028;2022-10-31T03:21:11;101757.44;;;11.91;92.11
71504;BME280;59323;50.874;7.028;2022-10-31T03:23:54;101762.34;;;11.86;92.05
71504;BME280;59323;50.874;7.028;2022-10-31T03:26:21;101773.69;;;11.88;92.56
71504;BME280;59323;50.874;7.028;2022-10-31T03:29:09;101766.09;;;11.81;92.70
71504;BME280;59323;50.874;7.028;2022-10-31T03:31:39;101765.41;;;11.84;92.71
71504;BME280;59323;50.874;7.028;2022-10-31T03:34:07;101770.84;;;11.84;92.74
71504;BME280;59323;50.874;7.028;2022-10-31T03:36:35;101765.66;;;11.79;93.04
71504;BME280;59323;50.874;7.028;2022-10-31T03:39:04;101764.38;;;11.77;93.54
71504;BME280;59323;50.874;7.028;2022-10-31T03:41:33;101754.75;;;11.67;93.69
71504;BME280;59323;50.874;7.028;2022-10-31T03:44:07;101750.22;;;11.71;92.92
71504;BME280;59323;50.874;7.028;2022-10-31T03:46:34;101745.00;;;11.66;93.98
71504;BME280;59323;50.874;7.028;2022-10-31T03:49:00;101753.16;;;11.66;94.11
71504;BME280;59323;50.874;7.028;2022-10-31T03:51:39;101749.66;;;11.65;93.94
71504;BME280;59323;50.874;7.028;2022-10-31T03:57:02;101763.72;;;11.67;94.19
71504;BME280;59323;50.874;7.028;2022-10-31T03:59:37;101749.13;;;11.60;94.52
71504;BME280;59323;50.874;7.028;2022-10-31T04:02:14;101762.47;;;11.65;93.79
71504;BME280;59323;50.874;7.028;2022-10-31T04:04:42;101764.06;;;11.66;93.87
71504;BME280;59323;50.874;7.028;2022-10-31T04:07:10;101752.28;;;11.62;93.90
71504;BME280;59323;50.874;7.028;2022-10-31T04:09:37;101740.25;;;11.63;93.73
71504;BME280;59323;50.874;7.028;2022-10-31T04:12:06;101752.38;;;11.65;93.98
71504;BME280;59323;50.874;7.028;2022-10-31T04:14:36;101750.69;;;11.61;93.91
71504;BME280;59323;50.874;7.028;2022-10-31T04:17:05;101742.97;;;11.63;94.12
71504;BME280;59323;50.874;7.028;2022-10-31T04:19:33;101749.91;;;11.60;94.03
71504;BME280;59323;50.874;7.028;2022-10-31T04:21:58;101736.63;;;11.59;93.52
71504;BME280;59323;50.874;7.028;2022-10-31T04:24:24;101756.25;;;11.64;93.35
71504;BME280;59323;50.874;7.028;2022-10-31T04:26:49;101754.41;;;11.68;93.08
71504;BME280;59323;50.874;7.028;2022-10-31T04:29:14;101749.31;;;11.67;92.97
71504;BME280;59323;50.874;7.028;2022-10-31T04:31:40;101747.28;;;11.64;92.88
71504;BME280;59323;50.874;7.028;2022-10-31T04:34:05;101758.72;;;11.69;92.64
71504;BME280;59323;50.874;7.028;2022-10-31T04:36:30;101749.56;;;11.62;92.77
71504;BME280;59323;50.874;7.028;2022-10-31T04:38:56;101753.06;;;11.62;92.66
71504;BME280;59323;50.874;7.028;2022-10-31T04:41:21;101749.13;;;11.60;93.01
71504;BME280;59323;50.874;7.028;2022-10-31T04:43:46;101743.13;;;11.54;93.17
71504;BME280;59323;50.874;7.028;2022-10-31T04:46:12;101744.72;;;11.55;92.87
71504;BME280;59323;50.874;7.028;2022-10-31T04:48:37;101740.50;;;11.58;92.34
71504;BME280;59323;50.874;7.028;2022-10-31T04:51:03;101731.00;;;11.52;92.75
71504;BME280;59323;50.874;7.028;2022-10-31T04:53:29;101746.28;;;11.56;92.75
71504;BME280;59323;50.874;7.028;2022-10-31T04:55:55;101732.59;;;11.53;92.59
71504;BME280;59323;50.874;7.028;2022-10-31T04:58:22;101732.13;;;11.51;92.73
71504;BME280;59323;50.874;7.028;2022-10-31T05:00:51;101728.28;;;11.52;92.96
71504;BME280;59323;50.874;7.028;2022-10-31T05:03:16;101731.34;;;11.50;92.75
71504;BME280;59323;50.874;7.028;2022-10-31T05:05:42;101735.19;;;11.49;93.06
71504;BME280;59323;50.874;7.028;2022-10-31T05:08:07;101735.31;;;11.53;92.69
71504;BME280;59323;50.874;7.028;2022-10-31T05:10:32;101732.47;;;11.49;92.30
71504;BME280;59323;50.874;7.028;2022-10-31T05:13:00;101730.56;;;11.50;92.64
71504;BME280;59323;50.874;7.028;2022-10-31T05:15:27;101712.00;;;11.39;92.77
71504;BME280;59323;50.874;7.028;2022-10-31T05:17:53;101725.25;;;11.41;93.21
71504;BME280;59323;50.874;7.028;2022-10-31T05:20:21;101720.84;;;11.36;92.72
71504;BME280;59323;50.874;7.028;2022-10-31T05:22:52;101710.19;;;11.31;93.19
71504;BME280;59323;50.874;7.028;2022-10-31T05:25:19;101714.16;;;11.34;93.42
71504;BME280;59323;50.874;7.028;2022-10-31T05:27:46;101725.16;;;11.37;93.10
71504;BME280;59323;50.874;7.028;2022-10-31T05:30:13;101722.44;;;11.37;93.18
71504;BME280;59323;50.874;7.028;2022-10-31T05:32:39;101719.25;;;11.35;92.93
71504;BME280;59323;50.874;7.028;2022-10-31T05:35:07;101716.44;;;11.32;92.88
71504;BME280;59323;50.874;7.028;2022-10-31T05:37:35;101718.81;;;11.33;93.11
71504;BME280;59323;50.874;7.028;2022-10-31T05:40:02;101718.38;;;11.31;93.16
71504;BME280;59323;50.874;7.028;2022-10-31T05:42:28;101714.41;;;11.29;92.82
71504;BME280;59323;50.874;7.028;2022-10-31T05:44:53;101706.50;;;11.24;92.99
71504;BME280;59323;50.874;7.028;2022-10-31T05:47:18;101707.63;;;11.23;93.02
71504;BME280;59323;50.874;7.028;2022-10-31T05:49:44;101712.72;;;11.24;92.55
71504;BME280;59323;50.874;7.028;2022-10-31T05:52:09;101704.47;;;11.21;93.13
71504;BME280;59323;50.874;7.028;2022-10-31T05:54:34;101702.66;;;11.13;93.44
71504;BME280;59323;50.874;7.028;2022-10-31T05:57:00;101701.19;;;11.15;93.53
71504;BME280;59323;50.874;7.028;2022-10-31T05:59:25;101704.34;;;11.17;93.25
71504;BME280;59323;50.874;7.028;2022-10-31T06:01:50;101694.50;;;11.13;93.49
71504;BME280;59323;50.874;7.028;2022-10-31T06:04:16;101688.16;;;11.08;93.49
71504;BME280;59323;50.874;7.028;2022-10-31T06:06:41;101700.41;;;11.15;93.89
71504;BME280;59323;50.874;7.028;2022-10-31T06:09:06;101695.97;;;11.10;93.71
71504;BME280;59323;50.874;7.028;2022-10-31T06:11:32;101689.31;;;11.07;93.42
71504;BME280;59323;50.874;7.028;2022-10-31T06:13:57;101702.31;;;11.14;93.37
71504;BME280;59323;50.874;7.028;2022-10-31T06:16:23;101692.38;;;11.06;93.41
71504;BME280;59323;50.874;7.028;2022-10-31T06:18:48;101689.97;;;11.04;93.48
71504;BME280;59323;50.874;7.028;2022-10-31T06:21:13;101695.75;;;11.03;93.42
71504;BME280;59323;50.874;7.028;2022-10-31T06:23:39;101692.69;;;11.04;93.38
71504;BME280;59323;50.874;7.028;2022-10-31T06:26:10;101703.47;;;11.01;93.09
71504;BME280;59323;50.874;7.028;2022-10-31T06:28:41;101704.94;;;10.98;93.55
71504;BME280;59323;50.874;7.028;2022-10-31T06:31:07;101700.53;;;10.94;94.56
71504;BME280;59323;50.874;7.028;2022-10-31T06:33:33;101706.66;;;10.91;94.49
71504;BME280;59323;50.874;7.028;2022-10-31T06:36:12;101710.41;;;10.86;94.93
71504;BME280;59323;50.874;7.028;2022-10-31T06:38:37;101704.41;;;10.80;95.01
71504;BME280;59323;50.874;7.028;2022-10-31T06:41:03;101713.34;;;10.81;94.71
71504;BME280;59323;50.874;7.028;2022-10-31T06:43:29;101705.53;;;10.79;94.78
71504;BME280;59323;50.874;7.028;2022-10-31T06:46:03;101708.72;;;10.82;95.03
71504;BME280;59323;50.874;7.028;2022-10-31T06:48:30;101701.34;;;10.82;95.02
71504;BME280;59323;50.874;7.028;2022-10-31T06:51:01;101707.22;;;10.84;95.01
71504;BME280;59323;50.874;7.028;2022-10-31T06:53:30;101694.78;;;10.83;94.55
71504;BME280;59323;50.874;7.028;2022-10-31T06:56:04;101699.66;;;10.77;94.99
71504;BME280;59323;50.874;7.028;2022-10-31T06:58:30;101684.81;;;10.75;94.48
71504;BME280;59323;50.874;7.028;2022-10-31T07:01:18;101687.19;;;10.76;94.20
71504;BME280;59323;50.874;7.028;2022-10-31T07:03:53;101698.97;;;10.80;94.66
71504;BME280;59323;50.874;7.028;2022-10-31T07:06:18;101703.50;;;10.76;95.10
71504;BME280;59323;50.874;7.028;2022-10-31T07:08:44;101706.22;;;10.76;94.87
71504;BME280;59323;50.874;7.028;2022-10-31T07:11:11;101702.47;;;10.81;94.29
71504;BME280;59323;50.874;7.028;2022-10-31T07:13:39;101694.78;;;10.83;94.10
71504;BME280;59323;50.874;7.028;2022-10-31T07:16:25;101698.63;;;10.82;94.20
71504;BME280;59323;50.874;7.028;2022-10-31T07:18:56;101707.44;;;10.91;94.51
71504;BME280;59323;50.874;7.028;2022-10-31T07:21:23;101710.63;;;10.93;94.85
71504;BME280;59323;50.874;7.028;2022-10-31T07:27:14;101705.84;;;10.90;94.56
71504;BME280;59323;50.874;7.028;2022-10-31T07:29:40;101718.53;;;10.98;94.89
71504;BME280;59323;50.874;7.028;2022-10-31T07:32:05;101724.44;;;11.00;94.55
71504;BME280;59323;50.874;7.028;2022-10-31T07:34:31;101716.84;;;11.06;94.19
71504;BME280;59323;50.874;7.028;2022-10-31T07:37:05;101733.16;;;11.18;94.25
71504;BME280;59323;50.874;7.028;2022-10-31T07:39:30;101717.50;;;11.15;94.21
71504;BME280;59323;50.874;7.028;2022-10-31T07:41:58;101724.06;;;11.26;93.98
71504;BME280;59323;50.874;7.028;2022-10-31T07:44:23;101709.09;;;11.20;93.64
71504;BME280;59323;50.874;7.028;2022-10-31T07:46:48;101707.28;;;11.24;93.40
71504;BME280;59323;50.874;7.028;2022-10-31T07:49:14;101716.34;;;11.28;93.14
71504;BME280;59323;50.874;7.028;2022-10-31T07:51:51;101724.25;;;11.33;93.67
71504;BME280;59323;50.874;7.028;2022-10-31T07:54:16;101741.22;;;11.42;93.25
71504;BME280;59323;50.874;7.028;2022-10-31T07:56:42;101728.31;;;11.39;93.31
71504;BME280;59323;50.874;7.028;2022-10-31T07:59:10;101736.34;;;11.48;93.19
71504;BME280;59323;50.874;7.028;2022-10-31T08:01:38;101725.09;;;11.50;92.72
71504;BME280;59323;50.874;7.028;2022-10-31T08:04:07;101744.66;;;11.67;92.94
71504;BME280;59323;50.874;7.028;2022-10-31T08:06:32;101729.00;;;11.64;92.55
71504;BME280;59323;50.874;7.028;2022-10-31T08:08:59;101733.09;;;11.70;92.37
71504;BME280;59323;50.874;7.028;2022-10-31T08:11:24;101731.63;;;11.73;91.45
71504;BME280;59323;50.874;7.028;2022-10-31T08:13:50;101730.47;;;11.74;91.45
71504;BME280;59323;50.874;7.028;2022-10-31T08:16:26;101731.03;;;11.80;91.63
71504;BME280;59323;50.874;7.028;2022-10-31T08:18:51;101736.69;;;11.87;91.35
71504;BME280;59323;50.874;7.028;2022-10-31T08:25:05;101727.13;;;11.93;90.60
71504;BME280;59323;50.874;7.028;2022-10-31T08:27:41;101711.91;;;11.92;90.17
71504;BME280;59323;50.874;7.028;2022-10-31T08:30:15;101699.63;;;11.98;91.10
71504;BME280;59323;50.874;7.028;2022-10-31T08:33:29;101710.34;;;12.06;90.59
71504;BME280;59323;50.874;7.028;2022-10-31T08:36:22;101708.31;;;12.03;90.75
71504;BME280;59323;50.874;7.028;2022-10-31T08:39:10;101699.44;;;12.06;91.11
71504;BME280;59323;50.874;7.028;2022-10-31T08:41:46;101713.00;;;12.19;90.48
71504;BME280;59323;50.874;7.028;2022-10-31T08:44:11;101700.44;;;12.14;90.56
71504;BME280;59323;50.874;7.028;2022-10-31T08:46:41;101701.31;;;12.18;90.72
71504;BME280;59323;50.874;7.028;2022-10-31T08:49:42;101689.25;;;12.19;89.20
71504;BME280;59323;50.874;7.028;2022-10-31T08:52:07;101690.84;;;12.20;89.44
71504;BME280;59323;50.874;7.028;2022-10-31T08:55:21;101700.78;;;12.28;89.69
71504;BME280;59323;50.874;7.028;2022-10-31T08:57:56;101687.06;;;12.25;90.01
71504;BME280;59323;50.874;7.028;2022-10-31T09:00:36;101693.81;;;12.31;90.40
71504;BME280;59323;50.874;7.028;2022-10-31T09:03:06;101686.44;;;12.31;90.36
71504;BME280;59323;50.874;7.028;2022-10-31T09:05:34;101686.22;;;12.36;90.12
71504;BME280;59323;50.874;7.028;2022-10-31T09:08:01;101690.59;;;12.41;89.73
71504;BME280;59323;50.874;7.028;2022-10-31T09:10:30;101694.63;;;12.47;90.06
71504;BME280;59323;50.874;7.028;2022-10-31T09:13:23;101683.47;;;12.52;89.51
71504;BME280;59323;50.874;7.028;2022-10-31T09:16:07;101678.44;;;12.54;89.09
71504;BME280;59323;50.874;7.028;2022-10-31T09:18:35;101679.31;;;12.58;89.45
71504;BME280;59323;50.874;7.028;2022-10-31T09:21:04;101678.59;;;12.61;89.47
71504;BME280;59323;50.874;7.028;2022-10-31T09:23:37;101674.97;;;12.73;89.68
71504;BME280;59323;50.874;7.028;2022-10-31T09:26:05;101667.16;;;12.72;89.31
71504;BME280;59323;50.874;7.028;2022-10-31T09:28:31;101676.44;;;12.86;89.50
71504;BME280;59323;50.874;7.028;2022-10-31T09:31:04;101666.38;;;12.90;89.31
71504;BME280;59323;50.874;7.028;2022-10-31T09:33:36;101675.47;;;13.14;89.20
71504;BME280;59323;50.874;7.028;2022-10-31T09:36:30;101670.28;;;13.24;88.29
71504;BME280;59323;50.874;7.028;2022-10-31T09:39:22;101682.03;;;13.48;87.20
71504;BME280;59323;50.874;7.028;2022-10-31T09:48:37;101651.47;;;14.04;85.08
71504;BME280;59323;50.874;7.028;2022-10-31T09:54:52;101650.41;;;14.57;83.93
71504;BME280;59323;50.874;7.028;2022-10-31T09:57:34;101640.91;;;14.78;82.28
71504;BME280;59323;50.874;7.028;2022-10-31T10:06:26;101618.09;;;15.30;80.95
71504;BME280;59323;50.874;7.028;2022-10-31T10:12:14;101627.56;;;15.70;79.25
71504;BME280;59323;50.874;7.028;2022-10-31T10:34:19;101586.97;;;16.41;75.73
71504;BME280;59323;50.874;7.028;2022-10-31T10:36:53;101586.63;;;16.46;76.60
71504;BME280;59323;50.874;7.028;2022-10-31T10:39:25;101587.41;;;16.46;75.94
71504;BME280;59323;50.874;7.028;2022-10-31T10:41:52;101578.03;;;16.51;76.21
71504;BME280;59323;50.874;7.028;2022-10-31T10:44:43;101579.25;;;16.61;76.49
71504;BME280;59323;50.874;7.028;2022-10-31T10:47:40;101572.56;;;16.55;76.42
71504;BME280;59323;50.874;7.028;2022-10-31T10:50:31;101567.84;;;16.55;76.89
71504;BME280;59323;50.874;7.028;2022-10-31T10:53:25;101559.66;;;16.62;75.39
71504;BME280;59323;50.874;7.028;2022-10-31T10:58:57;101560.81;;;16.58;76.53
71504;BME280;59323;50.874;7.028;2022-10-31T11:01:22;101566.28;;;16.58;75.71
71504;BME280;59323;50.874;7.028;2022-10-31T11:03:48;101557.69;;;16.59;74.65
71504;BME280;59323;50.874;7.028;2022-10-31T11:06:19;101554.94;;;16.63;75.23
71504;BME280;59323;50.874;7.028;2022-10-31T11:08:47;101554.94;;;16.63;74.63
71504;BME280;59323;50.874;7.028;2022-10-31T11:13:47;101548.28;;;16.60;75.12
71504;BME280;59323;50.874;7.028;2022-10-31T11:18:53;101539.25;;;16.60;74.95
71504;BME280;59323;50.874;7.028;2022-10-31T11:21:26;101529.53;;;16.69;74.49
71504;BME280;59323;50.874;7.028;2022-10-31T11:24:13;101542.47;;;16.76;74.84
71504;BME280;59323;50.874;7.028;2022-10-31T11:26:41;101535.03;;;16.73;74.76
71504;BME280;59323;50.874;7.028;2022-10-31T11:29:33;101525.63;;;16.77;74.90
71504;BME280;59323;50.874;7.028;2022-10-31T11:32:00;101518.97;;;16.82;74.46
71504;BME280;59323;50.874;7.028;2022-10-31T11:34:32;101524.47;;;16.89;74.57
71504;BME280;59323;50.874;7.028;2022-10-31T11:37:14;101515.88;;;16.91;73.98
71504;BME280;59323;50.874;7.028;2022-10-31T11:39:43;101508.84;;;16.97;73.74
71504;BME280;59323;50.874;7.028;2022-10-31T11:42:09;101506.13;;;17.07;72.89
71504;BME280;59323;50.874;7.028;2022-10-31T11:44:35;101501.03;;;17.13;72.74
71504;BME280;59323;50.874;7.028;2022-10-31T11:47:03;101501.44;;;17.19;73.23
71504;BME280;59323;50.874;7.028;2022-10-31T11:49:37;101492.00;;;17.27;72.51
71504;BME280;59323;50.874;7.028;2022-10-31T11:52:25;101484.94;;;17.26;72.33
71504;BME280;59323;50.874;7.028;2022-10-31T11:54:58;101487.31;;;17.24;71.92
71504;BME280;59323;50.874;7.028;2022-10-31T11:57:43;101477.09;;;17.28;72.53
71504;BME280;59323;50.874;7.028;2022-10-31T12:00:32;101472.00;;;17.26;72.95
71504;BME280;59323;50.874;7.028;2022-10-31T12:05:37;101465.31;;;17.24;73.03
71504;BME280;59323;50.874;7.028;2022-10-31T12:08:03;101457.47;;;17.22;73.21
71504;BME280;59323;50.874;7.028;2022-10-31T12:10:39;101454.34;;;17.24;72.98
71504;BME280;59323;50.874;7.028;2022-10-31T12:16:02;101454.72;;;17.29;72.96
71504;BME280;59323;50.874;7.028;2022-10-31T12:18:52;101440.59;;;17.27;72.88
71504;BME280;59323;50.874;7.028;2022-10-31T12:24:50;101437.84;;;17.34;72.71
71504;BME280;59323;50.874;7.028;2022-10-31T12:32:29;101424.09;;;17.41;72.73
71504;BME280;59323;50.874;7.028;2022-10-31T12:35:25;101413.50;;;17.43;72.57
71504;BME280;59323;50.874;7.028;2022-10-31T12:40:55;101407.22;;;17.47;71.80
71504;BME280;59323;50.874;7.028;2022-10-31T12:46:00;101382.91;;;17.56;70.30
71504;BME280;59323;50.874;7.028;2022-10-31T12:48:59;101380.91;;;17.63;70.27
71504;BME280;59323;50.874;7.028;2022-10-31T12:57:00;101369.53;;;17.54;71.22
71504;BME280;59323;50.874;7.028;2022-10-31T13:02:31;101348.31;;;17.65;70.18
71504;BME280;59323;50.874;7.028;2022-10-31T13:07:49;101333.78;;;17.72;70.58
71504;BME280;59323;50.874;7.028;2022-10-31T13:10:43;101330.25;;;17.71;71.11
71504;BME280;59323;50.874;7.028;2022-10-31T13:13:23;101307.88;;;17.66;70.64
71504;BME280;59323;50.874;7.028;2022-10-31T13:15:57;101314.53;;;17.76;69.96
71504;BME280;59323;50.874;7.028;2022-10-31T13:18:39;101312.97;;;17.74;69.65
71504;BME280;59323;50.874;7.028;2022-10-31T13:21:13;101311.00;;;17.75;70.73
71504;BME280;59323;50.874;7.028;2022-10-31T13:23:43;101300.41;;;17.73;70.82
71504;BME280;59323;50.874;7.028;2022-10-31T13:26:13;101300.41;;;17.73;70.65
71504;BME280;59323;50.874;7.028;2022-10-31T13:28:48;101287.81;;;17.80;70.63
71504;BME280;59323;50.874;7.028;2022-10-31T13:31:16;101293.72;;;17.78;70.92
71504;BME280;59323;50.874;7.028;2022-10-31T13:33:54;101295.66;;;17.78;70.69
71504;BME280;59323;50.874;7.028;2022-10-31T13:36:33;101293.72;;;17.74;70.79
71504;BME280;59323;50.874;7.028;2022-10-31T13:39:23;101299.59;;;17.77;70.89
71504;BME280;59323;50.874;7.028;2022-10-31T13:44:29;101294.09;;;17.77;71.62
71504;BME280;59323;50.874;7.028;2022-10-31T13:46:56;101296.47;;;17.74;71.69
71504;BME280;59323;50.874;7.028;2022-10-31T13:52:14;101270.53;;;17.76;72.11
71504;BME280;59323;50.874;7.028;2022-10-31T13:54:48;101276.06;;;17.68;72.28
71504;BME280;59323;50.874;7.028;2022-10-31T13:57:35;101288.63;;;17.73;72.61
71504;BME280;59323;50.874;7.028;2022-10-31T14:00:30;101285.84;;;17.77;72.12
71504;BME280;59323;50.874;7.028;2022-10-31T14:03:00;101269.75;;;17.75;72.39
71504;BME280;59323;50.874;7.028;2022-10-31T14:05:33;101252.50;;;17.71;72.26
71504;BME280;59323;50.874;7.028;2022-10-31T14:08:01;101257.22;;;17.70;72.87
71504;BME280;59323;50.874;7.028;2022-10-31T14:10:28;101232.44;;;17.78;72.33
71504;BME280;59323;50.874;7.028;2022-10-31T14:15:32;101205.41;;;17.62;72.97
71504;BME280;59323;50.874;7.028;2022-10-31T14:18:01;101212.06;;;17.68;72.53
71504;BME280;59323;50.874;7.028;2022-10-31T14:20:40;101205.34;;;17.76;71.42
71504;BME280;59323;50.874;7.028;2022-10-31T14:23:39;101206.56;;;17.71;71.80
71504;BME280;59323;50.874;7.028;2022-10-31T14:26:31;101198.69;;;17.73;71.35
71504;BME280;59323;50.874;7.028;2022-10-31T14:28:58;101198.28;;;17.75;70.97
71504;BME280;59323;50.874;7.028;2022-10-31T14:50:49;101181.78;;;17.79;70.61
71504;BME280;59323;50.874;7.028;2022-10-31T14:53:34;101177.44;;;17.81;70.40
71504;BME280;59323;50.874;7.028;2022-10-31T14:56:00;101171.56;;;17.79;70.39
71504;BME280;59323;50.874;7.028;2022-10-31T15:00:56;101168.41;;;17.81;69.90
71504;BME280;59323;50.874;7.028;2022-10-31T15:03:30;101156.63;;;17.80;69.89
71504;BME280;59323;50.874;7.028;2022-10-31T15:06:00;101155.50;;;17.74;70.26
71504;BME280;59323;50.874;7.028;2022-10-31T15:08:40;101156.66;;;17.77;69.87
71504;BME280;59323;50.874;7.028;2022-10-31T15:11:20;101165.31;;;17.71;70.00
71504;BME280;59323;50.874;7.028;2022-10-31T15:13:53;101149.94;;;17.81;69.03
71504;BME280;59323;50.874;7.028;2022-10-31T15:16:21;101137.38;;;17.80;68.82
71504;BME280;59323;50.874;7.028;2022-10-31T15:19:14;101144.44;;;17.81;69.16
71504;BME280;59323;50.874;7.028;2022-10-31T15:21:43;101128.38;;;17.76;68.97
71504;BME280;59323;50.874;7.028;2022-10-31T15:24:35;101112.72;;;17.69;68.33
71504;BME280;59323;50.874;7.028;2022-10-31T15:27:01;101115.78;;;17.79;68.35
71504;BME280;59323;50.874;7.028;2022-10-31T15:39:52;101091.19;;;17.54;69.27
71504;BME280;59323;50.874;7.028;2022-10-31T15:42:49;101087.25;;;17.55;68.74
71504;BME280;59323;50.874;7.028;2022-10-31T15:48:59;101083.00;;;17.43;69.18
71504;BME280;59323;50.874;7.028;2022-10-31T15:51:30;101090.06;;;17.44;69.39
71504;BME280;59323;50.874;7.028;2022-10-31T15:54:10;101095.59;;;17.40;69.78
71504;BME280;59323;50.874;7.028;2022-10-31T15:56:49;101080.25;;;17.43;69.53
71504;BME280;59323;50.874;7.028;2022-10-31T15:59:34;101082.28;;;17.35;69.63
71504;BME280;59323;50.874;7.028;2022-10-31T16:11:15;101082.00;;;17.12;70.98